Time;durP1;ratioP1;P1;durP2;ratioP2;P2;SDS_P1;SDS_P2;PMS_P1;PMS_P2;Temp;Humidity;BMP_temperature;BMP_pressure;BME280_temperature;BME280_humidity;BME280_pressure;Samples;Min_cycle;Max_cycle;Signal;HPM_P1;HPM_P2
2022/06/10 00:02:10;;;;;;;3.37;1.40;;;;;;;21.22;57.84;100895.81;5030353;28;20180;-61
2022/06/10 00:04:36;;;;;;;5.17;1.70;;;;;;;21.22;57.94;100898.69;5030400;28;20404;-61
2022/06/10 00:07:01;;;;;;;5.17;1.77;;;;;;;21.21;58.05;100906.47;5030019;28;20228;-61
2022/06/10 00:09:27;;;;;;;6.03;1.97;;;;;;;21.22;57.83;100898.69;5030264;28;20636;-61
2022/06/10 00:11:53;;;;;;;4.57;1.60;;;;;;;21.20;58.25;100901.94;5030404;28;20215;-61
2022/06/10 00:14:18;;;;;;;9.60;1.80;;;;;;;21.20;58.30;100901.94;5030255;28;20208;-61
2022/06/10 00:16:43;;;;;;;4.10;1.20;;;;;;;21.19;58.14;100890.84;5039182;28;20175;-61
2022/06/10 00:19:09;;;;;;;6.80;1.90;;;;;;;21.18;57.90;100910.09;5069747;28;20163;-61
2022/06/10 00:21:34;;;;;;;2.43;1.10;;;;;;;21.20;57.67;100906.84;5042865;28;20176;-61
2022/06/10 00:24:00;;;;;;;3.43;1.30;;;;;;;21.18;58.16;100907.22;5049068;28;20509;-61
2022/06/10 00:26:25;;;;;;;3.93;1.50;;;;;;;21.18;57.83;100910.09;5051449;28;20183;-61
2022/06/10 00:28:51;;;;;;;4.33;1.43;;;;;;;21.18;57.99;100910.09;5050622;28;20176;-61
2022/06/10 00:31:16;;;;;;;5.43;1.37;;;;;;;21.19;57.73;100906.03;5038653;28;20703;-61
2022/06/10 00:33:42;;;;;;;3.73;1.40;;;;;;;21.18;58.17;100907.22;5030591;28;20663;-61
2022/06/10 00:36:08;;;;;;;5.63;1.40;;;;;;;21.17;58.06;100908.44;5032187;28;20185;-61
2022/06/10 00:38:33;;;;;;;3.67;1.60;;;;;;;21.18;57.78;100909.28;5031893;28;20173;-61
2022/06/10 00:40:59;;;;;;;3.90;1.80;;;;;;;21.17;58.21;100914.19;5033339;28;20408;-61
2022/06/10 00:43:26;;;;;;;4.10;1.60;;;;;;;21.17;57.62;100914.19;5033364;28;20506;-61
2022/06/10 00:46:02;;;;;;;4.47;1.80;;;;;;;21.15;57.69;100910.03;5041178;28;20163;-61
2022/06/10 00:48:57;;;;;;;4.50;1.80;;;;;;;21.17;57.88;100916.25;5053282;28;20457;-61
2022/06/10 00:51:29;;;;;;;3.83;1.20;;;;;;;21.15;58.12;100904.31;5051979;28;20767;-62
2022/06/10 00:54:15;;;;;;;3.90;1.77;;;;;;;21.15;57.88;100902.28;5052922;28;20541;-61
2022/06/10 00:56:43;;;;;;;8.90;2.10;;;;;;;21.14;57.89;100897.75;5053202;28;20452;-61
2022/06/10 00:59:12;;;;;;;4.50;1.37;;;;;;;21.13;57.67;100893.19;5053093;28;20425;-61
2022/06/10 01:01:38;;;;;;;6.57;1.60;;;;;;;21.13;57.70;100901.81;5051947;28;20870;-61
2022/06/10 01:04:03;;;;;;;6.73;1.83;;;;;;;21.12;57.43;100900.16;5034921;28;20438;-61
2022/06/10 01:06:28;;;;;;;6.83;1.50;;;;;;;21.13;57.60;100906.75;5045384;28;20243;-61
2022/06/10 01:08:54;;;;;;;2.60;1.17;;;;;;;21.13;57.78;100898.13;5043132;28;20214;-61
2022/06/10 01:11:34;;;;;;;3.63;1.60;;;;;;;21.14;57.62;100903.50;5053358;28;20176;-61
2022/06/10 01:14:30;;;;;;;4.73;1.90;;;;;;;21.13;57.49;100901.00;5052373;28;20290;-61
2022/06/10 01:17:22;;;;;;;4.37;1.60;;;;;;;21.12;57.46;100903.03;5057837;28;20754;-61
2022/06/10 01:19:50;;;;;;;5.57;1.50;;;;;;;21.12;57.67;100900.16;5071336;28;20430;-61
2022/06/10 01:22:35;;;;;;;4.57;1.47;;;;;;;21.12;57.56;100902.22;5072259;28;20440;-61
2022/06/10 01:25:24;;;;;;;3.23;1.47;;;;;;;21.11;57.72;100906.28;5071325;28;20449;-61
2022/06/10 01:28:03;;;;;;;3.17;1.30;;;;;;;21.10;57.58;100905.47;5072495;28;20769;-61
2022/06/10 01:30:52;;;;;;;5.40;1.50;;;;;;;21.10;57.81;100911.22;5055199;28;20892;-61
2022/06/10 01:33:35;;;;;;;3.60;1.50;;;;;;;21.09;57.93;100912.44;5058496;28;20970;-61
2022/06/10 01:36:02;;;;;;;3.97;1.73;;;;;;;21.10;57.50;100911.22;5032535;28;20465;-62
2022/06/10 01:38:49;;;;;;;4.00;1.60;;;;;;;21.10;57.60;100919.81;5031040;28;20768;-61
2022/06/10 01:41:24;;;;;;;4.63;1.47;;;;;;;21.09;57.39;100915.31;5014797;28;20407;-62
2022/06/10 01:43:57;;;;;;;7.60;1.33;;;;;;;21.09;57.78;100912.44;5030834;28;20407;-61
2022/06/10 01:46:30;;;;;;;4.97;1.50;;;;;;;21.08;57.69;100907.88;5031143;28;20422;-61
2022/06/10 01:48:56;;;;;;;3.63;1.50;;;;;;;21.09;57.52;100903.81;5030433;28;20427;-62
2022/06/10 01:51:35;;;;;;;4.47;1.90;;;;;;;21.08;57.64;100910.75;5030716;28;20411;-62
2022/06/10 01:54:13;;;;;;;3.67;1.53;;;;;;;21.08;57.31;100910.75;5029952;28;20250;-62
2022/06/10 01:56:41;;;;;;;4.67;1.87;;;;;;;21.08;57.66;100905.00;5028963;28;20411;-62
2022/06/10 01:59:15;;;;;;;5.07;1.47;;;;;;;21.08;57.40;100919.34;5028702;28;20850;-62
2022/06/10 02:01:43;;;;;;;3.77;1.70;;;;;;;21.07;57.51;100917.69;5028699;28;20422;-61
2022/06/10 02:04:27;;;;;;;5.67;1.63;;;;;;;21.06;57.64;100918.94;5028906;28;20415;-62
2022/06/10 02:07:30;;;;;;;5.20;2.10;;;;;;;21.07;57.58;100919.75;5015518;28;20470;-61
2022/06/10 02:10:02;;;;;;;4.23;1.60;;;;;;;21.05;57.58;100908.66;5030294;28;20481;-61
2022/06/10 02:13:00;;;;;;;4.27;1.70;;;;;;;21.06;57.47;100913.19;5014667;28;20505;-61
2022/06/10 02:15:34;;;;;;;4.70;1.53;;;;;;;21.06;57.30;100918.09;5030868;28;20434;-61
2022/06/10 02:18:08;;;;;;;5.30;1.60;;;;;;;21.05;57.14;100917.28;5061694;28;20854;-61
2022/06/10 02:20:35;;;;;;;3.93;1.63;;;;;;;21.05;57.31;100914.41;5052568;28;20412;-61
2022/06/10 02:23:01;;;;;;;6.70;2.10;;;;;;;21.05;57.32;100916.44;5035666;28;20485;-61
2022/06/10 02:25:40;;;;;;;4.80;1.80;;;;;;;21.04;57.44;100921.34;5014082;28;20926;-62
2022/06/10 02:28:08;;;;;;;5.83;1.73;;;;;;;21.05;56.94;100920.13;5014146;28;20422;-61
2022/06/10 02:30:43;;;;;;;3.27;1.43;;;;;;;21.04;57.10;100927.09;5013726;28;20415;-61
2022/06/10 02:33:09;;;;;;;4.20;1.50;;;;;;;21.04;57.41;100926.25;5024749;28;20942;-61
2022/06/10 02:35:42;;;;;;;4.77;1.80;;;;;;;21.04;57.04;100932.00;5049231;28;20426;-61
2022/06/10 02:38:32;;;;;;;3.50;1.60;;;;;;;21.04;57.22;100937.75;5034179;28;20509;-61
2022/06/10 02:41:02;;;;;;;4.30;1.60;;;;;;;21.03;57.49;100936.91;5050960;28;20413;-61
2022/06/10 02:44:02;;;;;;;5.20;1.90;;;;;;;21.03;57.24;100924.59;5051195;28;20509;-61
2022/06/10 02:46:35;;;;;;;6.13;1.90;;;;;;;21.02;57.00;100935.25;5050013;28;20418;-61
2022/06/10 02:49:30;;;;;;;2.47;1.73;;;;;;;21.02;57.00;100937.31;5033385;28;20441;-62
2022/06/10 02:51:55;;;;;;;3.23;1.87;;;;;;;21.02;57.52;100943.06;5050380;28;20452;-62
2022/06/10 02:54:34;;;;;;;3.70;1.80;;;;;;;21.02;57.39;100943.06;5049234;28;20458;-61
2022/06/10 03:03:14;;;;;;;4.67;1.57;;;;;;;21.00;57.04;100960.66;5047948;28;20400;-61
2022/06/10 03:06:05;;;;;;;3.93;1.73;;;;;;;21.01;57.10;100959.44;5048655;28;20437;-61
2022/06/10 03:08:56;;;;;;;3.00;1.40;;;;;;;21.00;57.09;100954.91;5032421;28;20789;-61
2022/06/10 03:11:46;;;;;;;7.60;1.70;;;;;;;20.99;56.72;100955.28;5030853;28;20427;-61
2022/06/10 03:14:20;;;;;;;5.57;1.70;;;;;;;20.99;57.10;100955.28;5030622;28;20451;-61
2022/06/10 03:16:49;;;;;;;4.10;1.43;;;;;;;20.98;57.18;100965.94;5040265;28;20441;-62
2022/06/10 03:19:25;;;;;;;3.00;1.47;;;;;;;21.00;57.09;100959.81;5067460;28;20422;-62
2022/06/10 03:21:55;;;;;;;4.50;1.47;;;;;;;20.98;57.33;100968.78;5068897;28;20417;-61
2022/06/10 03:24:44;;;;;;;7.00;2.30;;;;;;;20.97;56.93;100967.16;5067497;28;20417;-61
2022/06/10 03:27:38;;;;;;;3.23;1.50;;;;;;;20.97;56.81;100975.75;5060982;28;20465;-62
2022/06/10 03:30:11;;;;;;;4.20;1.93;;;;;;;20.96;57.17;100971.22;5026255;28;20896;-62
2022/06/10 03:32:48;;;;;;;3.80;1.53;;;;;;;20.97;56.74;100977.81;5011011;28;20984;-61
2022/06/10 03:35:42;;;;;;;6.17;2.03;;;;;;;20.96;56.75;100982.72;5011488;28;20443;-62
2022/06/10 03:38:07;;;;;;;4.87;1.67;;;;;;;20.96;56.64;100976.13;5029114;28;20450;-61
2022/06/10 03:40:33;;;;;;;3.63;1.43;;;;;;;20.96;56.68;100981.88;5045850;28;20419;-61
2022/06/10 03:43:00;;;;;;;4.50;1.90;;;;;;;20.96;56.89;100987.63;5029499;28;20185;-61
2022/06/10 03:45:28;;;;;;;2.93;1.73;;;;;;;20.95;56.83;100978.19;5030533;28;20176;-62
2022/06/10 03:47:53;;;;;;;4.60;1.60;;;;;;;20.95;56.98;100981.06;5029637;28;20937;-62
2022/06/10 03:50:22;;;;;;;5.47;1.87;;;;;;;20.94;56.70;100976.53;5030271;28;20415;-61
2022/06/10 03:52:48;;;;;;;4.53;1.60;;;;;;;20.95;56.45;100994.56;5029580;28;20204;-62
2022/06/10 03:55:17;;;;;;;3.37;1.40;;;;;;;20.94;56.88;100993.75;5030474;28;20450;-61
2022/06/10 03:57:43;;;;;;;5.07;1.77;;;;;;;20.94;56.73;100995.78;5048202;28;20196;-61
2022/06/10 04:00:11;;;;;;;4.77;1.80;;;;;;;20.94;56.59;100996.63;5034362;28;20552;-61
2022/06/10 04:02:38;;;;;;;3.73;1.70;;;;;;;20.93;57.20;100994.94;5049441;28;20537;-61
2022/06/10 04:05:04;;;;;;;3.60;1.73;;;;;;;20.92;56.90;100993.28;5034204;28;20512;-61
2022/06/10 04:07:30;;;;;;;4.37;1.87;;;;;;;20.92;56.89;100999.03;5033860;28;20263;-62
2022/06/10 04:09:55;;;;;;;4.80;1.80;;;;;;;20.92;56.52;101007.66;5034619;28;20566;-62
2022/06/10 04:12:21;;;;;;;4.77;2.10;;;;;;;20.93;56.59;101009.31;5034066;28;20770;-61
2022/06/10 04:14:47;;;;;;;3.10;1.40;;;;;;;20.92;56.73;101001.91;5041089;28;20192;-61
2022/06/10 04:17:13;;;;;;;2.47;1.40;;;;;;;20.92;56.79;101015.44;5059063;28;20452;-61
2022/06/10 04:19:38;;;;;;;4.10;1.50;;;;;;;20.91;56.35;101014.59;5073839;28;20654;-61
2022/06/10 04:22:04;;;;;;;3.70;1.50;;;;;;;20.90;56.58;101012.94;5073800;28;20634;-61
2022/06/10 04:24:29;;;;;;;4.30;1.80;;;;;;;20.90;56.50;101010.09;5073845;28;20198;-61
2022/06/10 04:26:55;;;;;;;4.93;1.70;;;;;;;20.90;56.69;101012.94;5063967;28;20603;-61
2022/06/10 04:29:20;;;;;;;3.70;1.80;;;;;;;20.91;56.55;101017.47;5043805;28;20199;-60
2022/06/10 04:31:46;;;;;;;3.93;1.50;;;;;;;20.91;56.21;101014.59;5033560;28;20226;-60
2022/06/10 04:34:11;;;;;;;6.43;1.70;;;;;;;20.91;56.32;101026.09;5033490;28;20690;-60
2022/06/10 04:36:37;;;;;;;4.80;2.20;;;;;;;20.90;56.75;101024.44;5033430;28;20196;-60
2022/06/10 04:39:02;;;;;;;3.93;1.73;;;;;;;20.93;56.07;101028.59;5033740;28;20184;-60
2022/06/10 04:41:28;;;;;;;9.33;1.93;;;;;;;20.95;56.76;101029.88;5033394;28;20540;-61
2022/06/10 04:43:53;;;;;;;5.50;2.00;;;;;;;20.97;56.40;101033.16;5033690;28;20223;-60
2022/06/10 04:46:27;;;;;;;5.40;1.80;;;;;;;20.98;56.53;101037.69;5033222;28;20172;-60
2022/06/10 04:48:52;;;;;;;4.43;1.53;;;;;;;20.98;56.36;101036.88;5033746;28;20550;-60
2022/06/10 04:51:18;;;;;;;4.93;2.27;;;;;;;21.00;56.21;101041.03;5033461;28;20435;-60
2022/06/10 04:53:43;;;;;;;3.97;1.70;;;;;;;21.01;56.06;101030.38;5046832;28;20192;-60
2022/06/10 04:56:08;;;;;;;4.20;1.90;;;;;;;21.02;56.28;101044.34;5053055;28;20191;-60
2022/06/10 04:58:34;;;;;;;3.70;1.57;;;;;;;21.02;56.09;101037.78;5053248;28;20534;-60
2022/06/10 05:00:59;;;;;;;4.60;1.83;;;;;;;21.03;55.95;101037.38;5052469;28;20179;-60
2022/06/10 05:03:25;;;;;;;4.40;1.63;;;;;;;21.03;56.24;101042.31;5052593;28;20176;-60
2022/06/10 05:05:51;;;;;;;5.10;1.80;;;;;;;21.02;56.13;101043.53;5051606;28;20271;-61
2022/06/10 05:08:18;;;;;;;3.40;1.83;;;;;;;21.02;55.99;101047.22;5032556;28;20169;-61
2022/06/10 05:10:44;;;;;;;4.53;1.47;;;;;;;21.02;56.44;101052.97;5032829;28;20184;-61
2022/06/10 05:13:09;;;;;;;4.30;1.50;;;;;;;21.03;56.30;101062.41;5031595;28;20407;-61
2022/06/10 05:15:34;;;;;;;4.10;1.80;;;;;;;21.04;56.05;101059.16;5032616;28;20180;-61
2022/06/10 05:18:00;;;;;;;12.07;2.33;;;;;;;21.04;56.13;101056.31;5062961;28;20179;-61
2022/06/10 05:20:28;;;;;;;4.67;1.50;;;;;;;21.02;55.93;101047.22;5072673;28;20503;-61
2022/06/10 05:22:53;;;;;;;3.63;1.40;;;;;;;21.03;56.12;101051.75;5072418;28;20181;-61
2022/06/10 05:25:19;;;;;;;3.30;1.60;;;;;;;21.06;56.26;101051.00;5072688;28;20492;-60
2022/06/10 05:27:44;;;;;;;3.93;1.73;;;;;;;21.07;55.95;101052.66;5068846;28;20534;-60
2022/06/10 05:30:14;;;;;;;6.93;2.23;;;;;;;21.09;55.73;101061.72;5050502;28;20188;-60
2022/06/10 05:32:40;;;;;;;3.87;1.43;;;;;;;21.09;55.60;101064.59;5050840;28;20160;-60
2022/06/10 05:35:05;;;;;;;5.07;1.70;;;;;;;21.08;55.88;101065.78;5052382;28;20464;-60
2022/06/10 05:37:31;;;;;;;3.90;1.50;;;;;;;21.09;55.77;101060.88;5037914;28;20192;-60
2022/06/10 05:39:56;;;;;;;3.10;1.83;;;;;;;21.05;56.18;101057.97;5032514;28;20177;-60
2022/06/10 05:42:22;;;;;;;5.30;1.80;;;;;;;21.04;55.62;101070.66;5031918;28;20726;-60
2022/06/10 05:44:49;;;;;;;4.50;2.00;;;;;;;21.05;55.79;101072.31;5032271;28;20547;-60
2022/06/10 05:47:16;;;;;;;3.80;1.93;;;;;;;21.03;55.28;101068.16;5037755;28;20184;-61
2022/06/10 05:49:44;;;;;;;6.33;1.63;;;;;;;21.05;56.25;101071.47;5042781;28;20445;-60
2022/06/10 05:52:12;;;;;;;8.53;2.33;;;;;;;21.15;57.37;101063.06;5038989;28;20423;-61
2022/06/10 05:54:39;;;;;;;6.87;3.50;;;;;;;21.41;57.43;101068.91;5032111;28;20458;-61
2022/06/10 05:57:05;;;;;;;13.77;5.40;;;;;;;21.57;58.11;101075.38;5036799;28;20437;-61
2022/06/10 05:59:33;;;;;;;19.53;5.40;;;;;;;21.43;58.32;101072.22;5038535;28;20948;-61
2022/06/10 06:02:03;;;;;;;8.23;3.30;;;;;;;21.31;57.60;101071.56;5031615;28;20557;-61
2022/06/10 06:04:29;;;;;;;7.90;3.07;;;;;;;21.28;56.83;101070.28;5052001;28;20500;-61
2022/06/10 06:06:54;;;;;;;11.13;3.07;;;;;;;21.27;56.54;101068.63;5041789;28;20890;-61
2022/06/10 06:09:20;;;;;;;10.27;3.27;;;;;;;21.26;56.11;101061.25;5031816;28;20184;-61
2022/06/10 06:11:47;;;;;;;8.37;2.67;;;;;;;21.17;55.54;101066.38;5030282;28;20254;-61
2022/06/10 06:14:17;;;;;;;10.03;3.07;;;;;;;21.18;55.85;101070.09;5032417;28;20278;-61
2022/06/10 06:16:43;;;;;;;6.80;2.33;;;;;;;21.18;55.93;101056.56;5047998;28;20437;-62
2022/06/10 06:19:09;;;;;;;6.20;3.20;;;;;;;21.15;55.09;101065.09;5043849;28;20529;-62
2022/06/10 06:21:34;;;;;;;6.77;3.03;;;;;;;21.09;55.37;101067.47;5048935;28;20513;-62
2022/06/10 06:24:00;;;;;;;7.93;2.13;;;;;;;21.08;55.54;101071.53;5049732;28;20172;-61
2022/06/10 06:26:25;;;;;;;9.73;3.03;;;;;;;21.08;55.05;101062.09;5047457;28;20198;-61
2022/06/10 06:28:51;;;;;;;7.93;2.30;;;;;;;21.01;55.05;101071.41;5048894;28;20266;-61
2022/06/10 06:31:16;;;;;;;9.47;2.87;;;;;;;21.01;55.45;101065.66;5049369;28;20164;-61
2022/06/10 06:33:42;;;;;;;7.73;2.40;;;;;;;21.01;55.15;101068.53;5049795;28;20214;-61
2022/06/10 06:36:09;;;;;;;8.93;2.97;;;;;;;21.11;55.28;101075.69;5046706;28;20235;-62
2022/06/10 06:38:34;;;;;;;10.17;2.20;;;;;;;21.19;55.97;101066.84;5032247;28;20191;-62
2022/06/10 06:41:00;;;;;;;8.30;2.17;;;;;;;21.25;55.70;101070.22;5031267;28;20793;-62
2022/06/10 06:43:25;;;;;;;7.53;2.47;;;;;;;21.21;55.44;101070.16;5031203;28;20578;-62
2022/06/10 06:45:51;;;;;;;6.20;2.37;;;;;;;21.21;56.31;101072.19;5048064;28;20186;-61
2022/06/10 06:48:16;;;;;;;6.03;2.00;;;;;;;21.24;56.16;101069.41;5050259;28;20179;-61
2022/06/10 06:50:47;;;;;;;8.27;2.30;;;;;;;21.25;55.80;101068.19;5035746;28;20192;-61
2022/06/10 06:53:12;;;;;;;6.00;2.13;;;;;;;21.26;56.15;101071.88;5030880;28;20188;-61
2022/06/10 06:55:38;;;;;;;5.07;2.47;;;;;;;21.23;56.33;101069.78;5031100;28;20412;-61
2022/06/10 06:58:04;;;;;;;7.80;2.07;;;;;;;21.20;56.15;101079.16;5035417;28;20206;-61
2022/06/10 07:00:29;;;;;;;6.90;2.43;;;;;;;21.10;56.04;101080.63;5050561;28;20646;-61
2022/06/10 07:02:55;;;;;;;6.80;2.63;;;;;;;21.10;55.68;101079.78;5049873;28;20424;-61
2022/06/10 07:05:20;;;;;;;7.00;2.57;;;;;;;21.07;56.17;101074.81;5043356;28;20175;-61
2022/06/10 07:07:46;;;;;;;7.40;2.13;;;;;;;21.07;56.03;101074.81;5032268;28;20258;-61
2022/06/10 07:10:15;;;;;;;4.43;2.07;;;;;;;21.08;56.52;101076.47;5029235;28;20258;-61
2022/06/10 07:12:40;;;;;;;3.83;2.03;;;;;;;21.12;56.66;101078.19;5029892;28;20509;-61
2022/06/10 07:15:06;;;;;;;12.93;2.57;;;;;;;21.18;56.81;101075.84;5032760;28;20457;-61
2022/06/10 07:17:32;;;;;;;6.63;2.30;;;;;;;21.18;56.50;101070.91;5060964;28;20186;-61
2022/06/10 07:19:59;;;;;;;6.70;2.30;;;;;;;21.21;57.41;101075.06;5062271;28;20188;-61
2022/06/10 07:22:26;;;;;;;6.53;1.93;;;;;;;21.17;56.81;101075.00;5045910;28;20430;-61
2022/06/10 07:24:52;;;;;;;9.83;2.40;;;;;;;21.13;57.44;101082.72;5050201;28;20913;-61
2022/06/10 07:27:17;;;;;;;16.20;3.17;;;;;;;21.08;57.10;101080.16;5049321;28;20546;-61
2022/06/10 07:29:43;;;;;;;5.77;2.37;;;;;;;21.07;57.86;101075.63;5047268;28;20422;-60
2022/06/10 07:32:08;;;;;;;5.73;1.80;;;;;;;21.03;57.24;101077.59;5031246;28;20199;-61
2022/06/10 07:34:33;;;;;;;6.27;2.53;;;;;;;20.99;57.07;101070.97;5033462;28;20238;-61
2022/06/10 07:36:59;;;;;;;8.37;2.40;;;;;;;21.00;56.88;101066.03;5033479;28;20187;-61
2022/06/10 07:39:24;;;;;;;6.00;2.10;;;;;;;21.00;55.95;101068.91;5033505;28;20180;-61
2022/06/10 07:42:02;;;;;;;7.93;2.57;;;;;;;20.94;55.74;101068.41;5034776;28;20179;-61
2022/06/10 07:44:33;;;;;;;9.80;2.50;;;;;;;20.90;55.71;101066.66;5034444;28;20255;-61
2022/06/10 07:46:59;;;;;;;11.20;2.87;;;;;;;20.90;55.97;101058.88;5052710;28;20429;-61
2022/06/10 07:49:25;;;;;;;9.07;2.20;;;;;;;20.95;55.80;101061.44;5046106;28;20429;-60
2022/06/10 07:51:50;;;;;;;8.47;2.10;;;;;;;20.99;56.14;101065.22;5048561;28;20430;-60
2022/06/10 07:54:16;;;;;;;5.83;1.73;;;;;;;21.02;56.69;101072.25;5034549;28;20211;-60
2022/06/10 07:56:41;;;;;;;9.10;1.87;;;;;;;21.04;56.42;101067.78;5034080;28;20521;-60
2022/06/10 07:59:07;;;;;;;4.63;1.70;;;;;;;21.06;56.65;101070.25;5049317;28;20793;-60
2022/06/10 08:01:33;;;;;;;8.40;2.00;;;;;;;21.04;55.95;101064.91;5039498;28;20192;-60
2022/06/10 08:03:58;;;;;;;5.47;2.00;;;;;;;21.04;56.17;101059.16;5032168;28;20200;-60
2022/06/10 08:06:25;;;;;;;10.63;2.80;;;;;;;21.06;56.44;101067.38;5036455;28;20358;-60
2022/06/10 08:08:50;;;;;;;9.97;1.87;;;;;;;21.06;56.65;101062.47;5050430;28;20195;-60
2022/06/10 08:11:16;;;;;;;6.20;1.53;;;;;;;21.06;56.50;101062.47;5052282;28;20418;-60
2022/06/10 08:13:41;;;;;;;9.57;1.93;;;;;;;21.06;57.01;101061.63;5047324;28;20200;-60
2022/06/10 08:16:07;;;;;;;4.60;1.87;;;;;;;21.07;56.68;101055.53;5031903;28;20551;-60
2022/06/10 08:18:33;;;;;;;9.20;2.23;;;;;;;21.07;56.58;101060.44;5071583;28;20588;-60
2022/06/10 08:23:43;;;;;;;4.70;1.83;;;;;;;21.07;56.26;101063.31;5043371;28;20465;-60
2022/06/10 08:26:08;;;;;;;6.17;1.70;;;;;;;21.07;56.25;101063.31;5051701;28;20913;-60
2022/06/10 08:28:35;;;;;;;9.33;1.60;;;;;;;21.08;56.23;101067.84;5051635;28;20172;-60
2022/06/10 08:31:01;;;;;;;6.13;1.97;;;;;;;21.08;56.62;101059.25;5052073;28;20194;-60
2022/06/10 08:33:26;;;;;;;4.40;1.70;;;;;;;21.08;56.22;101065.78;5052169;28;20422;-60
2022/06/10 08:35:52;;;;;;;4.97;1.97;;;;;;;21.08;56.20;101065.78;5044365;28;20239;-60
2022/06/10 08:38:17;;;;;;;6.10;1.77;;;;;;;21.08;56.72;101054.31;5052068;28;20176;-61
2022/06/10 08:40:55;;;;;;;5.23;2.00;;;;;;;21.09;56.50;101058.03;5053567;28;20175;-61
2022/06/10 08:43:39;;;;;;;6.97;2.23;;;;;;;21.09;56.75;101060.88;5052315;28;20605;-60
2022/06/10 08:46:25;;;;;;;4.80;1.80;;;;;;;21.09;56.31;101058.88;5052633;28;20405;-60
2022/06/10 08:49:09;;;;;;;5.17;2.10;;;;;;;21.07;56.48;101063.31;5050721;28;20414;-61
2022/06/10 08:51:43;;;;;;;8.47;2.10;;;;;;;21.08;56.74;101060.03;5051475;28;20430;-60
2022/06/10 08:54:13;;;;;;;5.50;1.80;;;;;;;21.08;56.70;101059.25;5050557;28;20709;-61
2022/06/10 08:56:52;;;;;;;6.80;1.80;;;;;;;21.07;56.77;101061.25;5050488;28;20414;-60
2022/06/10 08:59:50;;;;;;;4.10;2.03;;;;;;;21.08;56.48;101053.50;5051573;28;20464;-60
2022/06/10 09:02:40;;;;;;;5.80;1.60;;;;;;;21.08;56.94;101050.63;5051793;28;20434;-60
2022/06/10 09:05:25;;;;;;;5.10;1.90;;;;;;;21.08;56.66;101051.44;5051762;28;20743;-60
2022/06/10 09:08:02;;;;;;;5.53;2.00;;;;;;;21.08;56.63;101050.63;5034474;28;20604;-61
2022/06/10 09:10:38;;;;;;;4.80;1.40;;;;;;;21.09;56.07;101049.41;5031616;28;20419;-61
2022/06/10 09:13:25;;;;;;;6.93;2.33;;;;;;;21.09;56.27;101050.25;5031186;28;20407;-60
2022/06/10 09:15:56;;;;;;;3.87;1.77;;;;;;;21.08;56.47;101047.75;5031063;28;20508;-60
2022/06/10 09:18:30;;;;;;;7.90;2.20;;;;;;;21.08;56.27;101048.56;5066941;28;20889;-60
2022/06/10 09:21:08;;;;;;;6.60;1.97;;;;;;;21.08;56.26;101047.75;5071053;28;20435;-60
2022/06/10 09:23:38;;;;;;;6.97;2.00;;;;;;;21.07;56.34;101046.91;5070674;28;20797;-60
2022/06/10 09:26:09;;;;;;;4.73;1.73;;;;;;;21.07;55.99;101044.03;5070875;28;20516;-60
2022/06/10 09:28:36;;;;;;;9.73;1.83;;;;;;;21.08;55.67;101048.56;5067288;28;20434;-60
2022/06/10 09:31:24;;;;;;;6.43;1.80;;;;;;;21.09;55.41;101053.13;5034374;28;20419;-60
2022/06/10 09:33:53;;;;;;;4.47;1.57;;;;;;;21.11;55.37;101046.97;5032659;28;20471;-61
2022/06/10 09:36:33;;;;;;;4.33;1.80;;;;;;;21.11;54.98;101052.72;5036249;28;20434;-60
2022/06/10 09:42:18;;;;;;;5.87;1.63;;;;;;;21.11;55.16;101053.56;5051568;28;20417;-60
2022/06/10 09:44:53;;;;;;;5.07;1.83;;;;;;;21.11;55.15;101053.56;5052154;28;20420;-60
2022/06/10 09:47:34;;;;;;;7.93;1.97;;;;;;;21.11;55.13;101050.69;5049210;28;20414;-61
2022/06/10 09:50:00;;;;;;;4.40;1.60;;;;;;;21.10;55.04;101049.03;5048664;28;20480;-61
2022/06/10 09:52:32;;;;;;;7.57;1.80;;;;;;;21.08;55.04;101042.81;5050458;28;20483;-60
2022/06/10 09:55:11;;;;;;;8.00;2.17;;;;;;;21.09;54.66;101041.63;5049900;28;20446;-61
2022/06/10 09:57:48;;;;;;;5.10;1.77;;;;;;;21.10;55.06;101042.44;5049039;28;20447;-60
2022/06/10 10:00:20;;;;;;;6.13;1.90;;;;;;;21.12;55.01;101037.16;5049885;28;20440;-60
2022/06/10 10:03:21;;;;;;;7.97;2.23;;;;;;;21.12;53.82;101040.84;5052179;28;20449;-61
2022/06/10 10:05:58;;;;;;;5.80;1.60;;;;;;;21.12;54.00;101037.16;5050310;28;20584;-60
2022/06/10 10:08:32;;;;;;;5.80;1.57;;;;;;;21.12;54.18;101029.38;5051806;28;20417;-60
2022/06/10 10:11:03;;;;;;;3.53;1.57;;;;;;;21.11;54.28;101032.63;5051816;28;20883;-60
2022/06/10 10:14:06;;;;;;;4.33;1.27;;;;;;;21.11;54.12;101027.72;5050452;28;20422;-60
2022/06/10 10:17:24;;;;;;;6.87;2.03;;;;;;;21.13;54.14;101027.34;5043136;28;20518;-60
2022/06/10 10:20:30;;;;;;;4.90;2.03;;;;;;;21.12;54.11;101023.63;5068839;28;20483;-60
2022/06/10 10:23:30;;;;;;;4.77;1.40;;;;;;;21.12;54.21;101020.75;5028177;28;20764;-60
2022/06/10 10:25:56;;;;;;;4.70;1.70;;;;;;;21.13;53.92;101016.66;5041040;28;20465;-60
2022/06/10 10:28:23;;;;;;;4.13;1.70;;;;;;;21.15;54.24;101024.91;5048035;28;20540;-60
2022/06/10 10:31:03;;;;;;;4.77;1.90;;;;;;;21.15;54.58;101020.00;5031550;28;20607;-60
2022/06/10 10:33:29;;;;;;;7.10;2.00;;;;;;;21.14;53.90;101018.34;5048199;28;20513;-60
2022/06/10 10:35:56;;;;;;;5.70;1.57;;;;;;;21.15;54.31;101020.00;5048049;28;20807;-60
2022/06/10 10:38:32;;;;;;;6.83;1.70;;;;;;;21.15;54.18;101019.16;5029928;28;20190;-60
2022/06/10 10:40:57;;;;;;;4.53;1.53;;;;;;;21.17;53.34;101023.31;5031927;28;20411;-60
2022/06/10 10:43:25;;;;;;;5.10;1.87;;;;;;;21.17;53.27;101017.56;5032176;28;20419;-61
2022/06/10 10:45:59;;;;;;;5.13;1.60;;;;;;;21.17;52.91;101011.00;5039597;28;20171;-60
2022/06/10 10:48:35;;;;;;;3.70;1.30;;;;;;;21.19;52.31;101014.31;5051334;28;20403;-60
2022/06/10 10:51:11;;;;;;;4.40;1.43;;;;;;;21.18;52.76;101004.88;5051215;28;20421;-60
2022/06/10 10:53:48;;;;;;;4.83;2.00;;;;;;;21.17;52.62;101016.75;5049958;28;20417;-60
2022/06/10 10:56:15;;;;;;;10.17;2.03;;;;;;;21.18;53.15;101012.66;5050990;28;20410;-60
2022/06/10 10:58:45;;;;;;;6.73;2.17;;;;;;;21.20;52.77;101010.22;5016321;28;20414;-60
2022/06/10 11:01:43;;;;;;;6.40;1.80;;;;;;;21.20;52.13;101008.19;5050909;28;20465;-60
2022/06/10 11:03:59;;;;;;;6.97;1.40;;;;;;;21.18;51.75;101004.88;5049659;28;20901;-60
2022/06/10 11:06:26;;;;;;;5.67;1.70;;;;;;;21.19;51.50;101005.72;5041837;28;20481;-61
2022/06/10 11:09:04;;;;;;;5.30;1.70;;;;;;;21.20;51.69;101004.50;5030996;28;20188;-61
2022/06/10 11:11:35;;;;;;;6.30;1.80;;;;;;;21.21;51.86;101009.84;5031319;28;20952;-60
2022/06/10 11:14:21;;;;;;;3.80;1.50;;;;;;;21.21;51.23;101003.28;5029345;28;20533;-60
2022/06/10 11:16:59;;;;;;;5.67;1.63;;;;;;;21.19;51.37;100997.94;5038022;28;20413;-60
2022/06/10 11:19:33;;;;;;;4.03;1.43;;;;;;;21.18;52.71;101007.72;5069528;28;20418;-60
2022/06/10 11:22:02;;;;;;;4.53;1.53;;;;;;;21.19;52.52;100995.06;5069998;28;20759;-60
2022/06/10 11:24:44;;;;;;;7.60;1.43;;;;;;;21.19;52.21;101003.69;5069463;28;20416;-60
2022/06/10 11:27:37;;;;;;;8.80;1.40;;;;;;;21.18;51.92;100999.13;5069705;28;21017;-60
2022/06/10 11:30:11;;;;;;;4.40;1.70;;;;;;;21.20;52.15;100988.09;5067639;28;20441;-61
2022/06/10 11:32:42;;;;;;;5.93;1.20;;;;;;;21.21;51.66;100992.63;5070499;28;20419;-60
2022/06/10 11:35:26;;;;;;;3.17;1.20;;;;;;;21.23;51.39;100983.63;5032570;28;20866;-60
2022/06/10 11:37:57;;;;;;;4.47;1.50;;;;;;;21.21;51.40;100983.16;5048297;28;20920;-60
2022/06/10 11:40:29;;;;;;;5.60;1.40;;;;;;;21.24;51.74;100983.25;5049086;28;20399;-60
2022/06/10 11:43:05;;;;;;;4.03;1.77;;;;;;;21.24;50.97;100977.50;5049279;28;20509;-60
2022/06/10 11:45:39;;;;;;;7.53;1.73;;;;;;;21.27;50.92;100975.91;5049129;28;20421;-60
2022/06/10 11:48:09;;;;;;;7.53;2.00;;;;;;;21.24;50.96;100966.03;5049284;28;20781;-60
2022/06/10 11:51:10;;;;;;;4.77;1.70;;;;;;;21.23;51.19;100964.34;5049134;28;20411;-60
2022/06/10 11:53:48;;;;;;;2.87;1.10;;;;;;;21.22;51.38;100964.75;5047808;28;20430;-60
2022/06/10 12:01:57;;;;;;;4.20;1.43;;;;;;;21.25;51.37;100961.94;5049201;28;20413;-61
2022/06/10 12:04:42;;;;;;;4.60;1.30;;;;;;;21.27;51.69;100955.81;5047686;28;20450;-61